Time;durP1;ratioP1;P1;durP2;ratioP2;P2;SDS_P1;SDS_P2;PMS_P1;PMS_P2;Temp;Humidity;BMP_temperature;BMP_pressure;BME280_temperature;BME280_humidity;BME280_pressure;Samples;Min_cycle;Max_cycle;Signal;HPM_P1;HPM_P2
2022/01/10 00:00:28;;;;;;;8.35;1.98;;;;;;;11.10;83.65;99739.50;5053038;28;20036;-82
2022/01/10 00:03:00;;;;;;;5.47;0.80;;;;;;;11.10;83.54;99741.25;5053861;28;20060;-82
2022/01/10 00:05:28;;;;;;;5.22;0.75;;;;;;;11.08;83.62;99741.28;5053642;28;20037;-83
2022/01/10 00:07:55;;;;;;;5.28;0.90;;;;;;;11.09;83.85;99747.44;5053064;28;20084;-82
2022/01/10 00:10:23;;;;;;;5.30;0.93;;;;;;;11.08;83.70;99735.13;5059780;28;20073;-82
2022/01/10 00:12:51;;;;;;;7.38;1.60;;;;;;;11.08;83.86;99741.28;5053423;28;20072;-82
2022/01/10 00:15:21;;;;;;;3.05;0.73;;;;;;;11.06;83.80;99737.75;5054023;28;20501;-82
2022/01/10 00:17:49;;;;;;;2.50;1.20;;;;;;;11.06;83.86;99735.09;5054207;28;20082;-84
2022/01/10 00:20:20;;;;;;;1.92;0.60;;;;;;;11.08;83.99;99733.34;5053445;28;20045;-82
2022/01/10 00:22:49;;;;;;;5.10;0.70;;;;;;;11.12;84.02;99736.84;5053015;28;20110;-82
2022/01/10 00:25:20;;;;;;;5.28;0.95;;;;;;;11.13;84.16;99728.94;5054176;28;20045;-83
2022/01/10 00:27:52;;;;;;;3.17;1.27;;;;;;;11.15;84.16;99732.44;5052556;28;20055;-82
2022/01/10 00:30:21;;;;;;;3.17;0.82;;;;;;;11.14;84.09;99725.41;5050914;28;20050;-82
2022/01/10 00:32:49;;;;;;;3.85;1.80;;;;;;;11.16;84.36;99720.97;5052125;28;20036;-82
2022/01/10 00:35:18;;;;;;;4.90;0.82;;;;;;;11.23;84.48;99728.88;5053326;28;20045;-83
2022/01/10 00:37:46;;;;;;;3.00;0.82;;;;;;;11.25;84.46;99720.06;5052334;28;20033;-82
2022/01/10 00:40:16;;;;;;;5.10;0.80;;;;;;;11.27;84.54;99726.25;5053153;28;20044;-82
2022/01/10 00:42:52;;;;;;;4.13;0.68;;;;;;;11.30;84.55;99725.31;5052306;28;20489;-81
2022/01/10 00:45:23;;;;;;;3.85;0.90;;;;;;;11.33;84.58;99727.97;5052513;28;20029;-82
2022/01/10 00:47:51;;;;;;;2.90;0.90;;;;;;;11.33;84.57;99723.56;5051765;28;20060;-83
2022/01/10 00:50:20;;;;;;;5.13;1.20;;;;;;;11.35;84.57;99732.38;5053238;28;20356;-83
2022/01/10 00:52:48;;;;;;;4.25;0.70;;;;;;;11.34;84.63;99727.09;5055826;28;20451;-83
2022/01/10 00:55:16;;;;;;;2.90;0.80;;;;;;;11.33;84.59;99736.78;5060462;28;20408;-83
2022/01/10 00:57:43;;;;;;;5.25;0.68;;;;;;;11.34;84.68;99727.97;5053772;28;20542;-83
2022/01/10 01:00:13;;;;;;;3.58;0.70;;;;;;;11.33;84.68;99727.97;5053513;28;20053;-82
2022/01/10 01:02:41;;;;;;;1.90;0.50;;;;;;;11.30;84.83;99726.22;5052598;28;20048;-82
2022/01/10 01:05:11;;;;;;;2.35;0.55;;;;;;;11.28;84.76;99721.84;5052224;28;20056;-82
2022/01/10 01:07:42;;;;;;;3.20;0.70;;;;;;;11.28;84.71;99727.13;5043641;28;20069;-82
2022/01/10 01:13:01;;;;;;;5.40;1.00;;;;;;;11.21;84.78;99720.97;5032228;28;20290;-83
2022/01/10 01:15:32;;;;;;;7.88;1.10;;;;;;;11.19;84.78;99706.91;5052409;28;20033;-83
2022/01/10 01:18:15;;;;;;;3.85;0.80;;;;;;;11.17;84.64;99708.66;5035685;28;20049;-83
2022/01/10 01:23:59;;;;;;;4.03;0.70;;;;;;;11.14;84.64;99704.28;5046096;28;20447;-83
2022/01/10 01:26:18;;;;;;;5.00;0.82;;;;;;;11.05;84.28;99696.38;5048654;28;20045;-82
2022/01/10 01:28:46;;;;;;;5.18;0.90;;;;;;;11.07;84.79;99702.53;5068090;28;20682;-82
2022/01/10 01:31:13;;;;;;;5.97;0.75;;;;;;;11.10;84.61;99691.06;5076919;28;20044;-83
2022/01/10 01:33:41;;;;;;;3.95;0.55;;;;;;;11.09;84.71;99689.34;5051211;28;20120;-82
2022/01/10 01:36:09;;;;;;;2.30;0.65;;;;;;;11.06;84.72;99695.50;5051601;28;20037;-81
2022/01/10 01:38:40;;;;;;;5.90;1.10;;;;;;;11.11;84.71;99698.13;5051003;28;20037;-82
2022/01/10 01:43:53;;;;;;;3.92;0.52;;;;;;;11.16;84.70;99689.28;5052264;28;20577;-81
2022/01/10 01:46:22;;;;;;;3.88;0.80;;;;;;;11.18;84.85;99668.16;5050734;28;20051;-81
2022/01/10 01:48:51;;;;;;;8.15;0.73;;;;;;;11.21;85.00;99669.91;5051245;28;20044;-82
2022/01/10 01:51:23;;;;;;;3.05;0.60;;;;;;;11.31;84.90;99666.31;5051018;28;20095;-82
2022/01/10 01:53:53;;;;;;;1.40;0.60;;;;;;;11.37;84.79;99661.88;5051042;28;20067;-82
2022/01/10 01:56:21;;;;;;;3.03;0.60;;;;;;;11.39;84.84;99656.59;5067058;28;20086;-82
2022/01/10 01:58:52;;;;;;;2.17;0.70;;;;;;;11.40;84.82;99653.06;5050796;28;20052;-82
2022/01/10 02:01:39;;;;;;;2.72;0.63;;;;;;;11.38;84.81;99653.09;5064205;28;20060;-81
2022/01/10 02:04:07;;;;;;;3.10;0.57;;;;;;;11.40;84.84;99656.59;5065600;28;20049;-81
2022/01/10 02:06:36;;;;;;;2.92;0.40;;;;;;;11.43;84.75;99655.69;5060132;28;20398;-80
2022/01/10 02:09:05;;;;;;;2.55;0.68;;;;;;;11.46;84.81;99656.56;5048010;28;20179;-82
2022/01/10 02:11:33;;;;;;;2.45;0.70;;;;;;;11.48;84.79;99656.56;5051451;28;20048;-82
2022/01/10 02:14:04;;;;;;;4.70;0.52;;;;;;;11.48;84.68;99657.44;5069396;28;20135;-82
2022/01/10 02:16:44;;;;;;;2.15;0.52;;;;;;;11.51;84.68;99661.81;5031266;28;20116;-82
2022/01/10 02:19:35;;;;;;;2.47;0.30;;;;;;;11.50;84.74;99671.50;5046493;28;20051;-82
2022/01/10 02:22:05;;;;;;;5.38;0.60;;;;;;;11.53;84.73;99665.34;5067917;28;20048;-83
2022/01/10 02:24:43;;;;;;;5.30;0.82;;;;;;;11.51;84.71;99675.03;5035385;28;20072;-82
2022/01/10 02:27:12;;;;;;;1.67;0.50;;;;;;;11.49;84.66;99677.66;5030884;28;20154;-82
2022/01/10 02:29:40;;;;;;;4.38;0.60;;;;;;;11.49;84.65;99676.78;5045700;28;20045;-82
2022/01/10 02:32:08;;;;;;;2.75;0.68;;;;;;;11.49;84.65;99688.25;5058210;28;20037;-81
2022/01/10 02:34:36;;;;;;;2.97;0.52;;;;;;;11.51;84.69;99691.75;5034021;28;20116;-81
2022/01/10 02:37:06;;;;;;;3.90;0.60;;;;;;;11.54;84.67;99690.88;5067985;28;20049;-81
2022/01/10 02:39:36;;;;;;;4.07;0.80;;;;;;;11.55;84.66;99684.72;5067201;28;20404;-82
2022/01/10 02:42:05;;;;;;;5.35;0.50;;;;;;;11.52;84.58;99675.03;5049960;28;20707;-81
2022/01/10 02:44:32;;;;;;;2.97;0.43;;;;;;;11.52;84.71;99674.16;5050515;28;20041;-81
2022/01/10 02:47:00;;;;;;;2.60;0.40;;;;;;;11.53;84.65;99671.50;5059693;28;20413;-82
2022/01/10 02:49:33;;;;;;;3.60;0.47;;;;;;;11.52;84.67;99668.84;5050619;28;20041;-82
2022/01/10 02:52:02;;;;;;;2.33;0.40;;;;;;;11.52;84.68;99669.75;5067104;28;20106;-82
2022/01/10 02:54:33;;;;;;;1.25;0.40;;;;;;;11.55;84.78;99669.69;5047161;28;20452;-81
2022/01/10 02:57:08;;;;;;;2.38;0.50;;;;;;;11.54;84.70;99672.38;5062785;28;20045;-81
2022/01/10 02:59:37;;;;;;;4.05;0.47;;;;;;;11.53;84.61;99676.78;5050491;28;20049;-81
2022/01/10 03:02:06;;;;;;;2.45;0.55;;;;;;;11.49;84.84;99668.88;5050023;28;20041;-81
2022/01/10 03:04:34;;;;;;;6.45;0.63;;;;;;;11.48;84.88;99677.69;5050362;28;20374;-81
2022/01/10 03:07:02;;;;;;;5.65;0.50;;;;;;;11.45;84.68;99675.94;5051399;28;20420;-81
2022/01/10 03:09:29;;;;;;;4.88;0.80;;;;;;;11.42;84.95;99665.38;5049802;28;20053;-81
2022/01/10 03:11:59;;;;;;;2.95;0.57;;;;;;;11.42;84.92;99675.09;5062085;28;20056;-81
2022/01/10 03:14:27;;;;;;;3.47;0.55;;;;;;;11.41;84.99;99678.63;5051070;28;20400;-79
2022/01/10 03:16:54;;;;;;;2.65;0.60;;;;;;;11.38;85.04;99679.50;5049407;28;20037;-79
2022/01/10 03:19:22;;;;;;;5.15;0.70;;;;;;;11.39;85.13;99680.38;5050095;28;20406;-80
2022/01/10 03:21:50;;;;;;;3.05;0.70;;;;;;;11.38;85.10;99686.53;5051264;28;20044;-78
2022/01/10 03:24:19;;;;;;;5.20;0.82;;;;;;;11.36;85.22;99691.84;5056644;28;20041;-79
2022/01/10 03:26:47;;;;;;;5.15;0.77;;;;;;;11.40;85.17;99700.63;5045306;28;20145;-82
2022/01/10 03:29:17;;;;;;;2.53;0.70;;;;;;;11.41;85.30;99702.41;5089739;28;20040;-82
2022/01/10 03:31:44;;;;;;;4.93;1.15;;;;;;;11.40;85.33;99693.59;5083301;28;20051;-82
2022/01/10 03:34:13;;;;;;;4.45;0.80;;;;;;;11.41;85.49;99703.28;5073625;28;20136;-82
2022/01/10 03:36:41;;;;;;;4.50;0.63;;;;;;;11.42;85.51;99699.72;5089917;28;20040;-82
2022/01/10 03:39:09;;;;;;;7.20;0.82;;;;;;;11.43;85.71;99706.78;5073633;28;20064;-81
2022/01/10 03:41:37;;;;;;;1.05;0.55;;;;;;;11.43;85.78;99717.34;5057102;28;20044;-81
2022/01/10 03:44:06;;;;;;;3.17;0.80;;;;;;;11.43;85.71;99713.81;5057110;28;20040;-82
2022/01/10 03:46:35;;;;;;;6.70;1.17;;;;;;;11.46;85.91;99722.63;5074203;28;20124;-82
2022/01/10 03:49:06;;;;;;;3.42;0.70;;;;;;;11.46;86.02;99725.28;5058078;28;20596;-82
2022/01/10 03:51:34;;;;;;;10.25;1.02;;;;;;;11.48;85.98;99725.28;5069827;28;20048;-82
2022/01/10 03:54:01;;;;;;;1.80;0.50;;;;;;;11.52;86.32;99727.00;5073301;28;20497;-82
2022/01/10 03:56:32;;;;;;;1.98;0.60;;;;;;;11.56;86.23;99726.09;5074275;28;20040;-82
2022/01/10 03:59:04;;;;;;;3.42;0.50;;;;;;;11.59;86.19;99745.47;5039017;28;20052;-82
2022/01/10 04:01:32;;;;;;;2.83;0.90;;;;;;;11.63;86.28;99742.78;5053688;28;20120;-82
2022/01/10 04:04:01;;;;;;;3.15;0.70;;;;;;;11.67;86.52;99742.78;5052963;28;20053;-82
2022/01/10 04:06:29;;;;;;;4.07;0.70;;;;;;;11.70;86.17;99737.47;5052742;28;20037;-82
2022/01/10 04:08:56;;;;;;;3.60;0.80;;;;;;;11.75;86.13;99746.28;5053331;28;20129;-82
2022/01/10 04:11:25;;;;;;;4.13;0.85;;;;;;;11.76;86.18;99737.47;5053092;28;20101;-84
2022/01/10 04:13:53;;;;;;;4.68;1.98;;;;;;;11.78;86.15;99740.97;5054068;28;20044;-82
2022/01/10 04:16:21;;;;;;;26.83;12.70;;;;;;;11.82;86.10;99744.47;5057101;28;20037;-82
2022/01/10 04:18:48;;;;;;;23.67;10.52;;;;;;;11.82;85.88;99739.19;5061060;28;20132;-82
2022/01/10 04:21:18;;;;;;;13.68;5.50;;;;;;;11.84;85.84;99740.06;5058604;28;20118;-82
2022/01/10 04:23:45;;;;;;;39.47;15.75;;;;;;;11.77;85.56;99735.69;5053278;28;20531;-82
2022/01/10 04:26:13;;;;;;;18.83;6.30;;;;;;;11.63;85.24;99746.31;5052571;28;20045;-81
2022/01/10 04:28:40;;;;;;;18.60;7.32;;;;;;;11.56;85.16;99739.28;5052622;28;20037;-82
2022/01/10 04:31:10;;;;;;;41.38;20.45;;;;;;;11.53;85.07;99736.69;5054413;28;20048;-81
2022/01/10 04:33:37;;;;;;;22.83;10.30;;;;;;;11.45;84.79;99733.19;5051872;28;20069;-81
2022/01/10 04:36:06;;;;;;;20.38;9.88;;;;;;;11.42;84.76;99736.72;5054471;28;20041;-82
2022/01/10 04:38:36;;;;;;;13.40;6.93;;;;;;;11.45;84.60;99746.41;5068687;28;20040;-82
2022/01/10 04:41:04;;;;;;;15.85;10.20;;;;;;;11.44;84.57;99745.53;5052813;28;20052;-82
2022/01/10 04:43:34;;;;;;;11.02;6.72;;;;;;;11.47;84.56;99744.66;5052819;28;20041;-82
2022/01/10 04:46:04;;;;;;;11.13;6.72;;;;;;;11.47;84.41;99753.47;5052556;28;20091;-83
2022/01/10 04:48:32;;;;;;;7.25;4.47;;;;;;;11.46;84.30;99761.38;5054742;28;20044;-83
2022/01/10 04:51:15;;;;;;;4.65;2.50;;;;;;;11.46;84.44;99764.03;5052227;28;20051;-83
2022/01/10 04:53:47;;;;;;;3.00;1.20;;;;;;;11.48;84.40;99759.63;5052135;28;20047;-82
2022/01/10 04:56:17;;;;;;;3.00;0.73;;;;;;;11.48;84.44;99757.84;5069113;28;20045;-82
2022/01/10 04:58:47;;;;;;;3.47;0.82;;;;;;;11.47;84.50;99763.16;5052718;28;20073;-82
2022/01/10 05:01:16;;;;;;;1.65;0.70;;;;;;;11.45;84.52;99767.53;5052002;28;20106;-82
2022/01/10 05:03:45;;;;;;;3.28;0.60;;;;;;;11.43;84.68;99770.19;5065656;28;20040;-82
2022/01/10 05:06:13;;;;;;;2.10;0.63;;;;;;;11.43;84.66;99769.31;5058809;28;20045;-81
2022/01/10 05:08:42;;;;;;;3.15;0.60;;;;;;;11.44;84.56;99765.78;5051614;28;20041;-82
2022/01/10 05:11:16;;;;;;;5.20;0.98;;;;;;;11.45;84.48;99763.16;5051810;28;20065;-82
2022/01/10 05:13:44;;;;;;;1.33;0.68;;;;;;;11.44;84.42;99765.78;5052049;28;20083;-82
2022/01/10 05:16:12;;;;;;;3.00;0.95;;;;;;;11.42;84.19;99772.88;5051944;28;20065;-82
2022/01/10 05:18:40;;;;;;;3.03;1.05;;;;;;;11.40;84.19;99783.44;5068520;28;20037;-82
2022/01/10 05:21:08;;;;;;;3.08;1.38;;;;;;;11.39;84.18;99794.00;5051837;28;20087;-82
2022/01/10 05:23:36;;;;;;;8.27;3.97;;;;;;;11.38;84.09;99793.13;5051507;28;20049;-81
2022/01/10 05:26:06;;;;;;;10.65;6.70;;;;;;;11.37;84.02;99808.97;5043172;28;20045;-82
2022/01/10 05:28:35;;;;;;;14.68;9.95;;;;;;;11.37;83.98;99801.03;5060264;28;20049;-82
2022/01/10 05:31:02;;;;;;;9.38;5.22;;;;;;;11.39;84.12;99810.72;5048959;28;20048;-82
2022/01/10 05:33:37;;;;;;;19.52;12.82;;;;;;;11.45;84.19;99813.34;5058582;28;20125;-81
2022/01/10 05:36:05;;;;;;;16.98;12.38;;;;;;;11.53;84.33;99819.50;5035271;28;20496;-83
2022/01/10 05:38:33;;;;;;;10.00;6.80;;;;;;;11.62;84.32;99823.84;5051216;28;20044;-83
2022/01/10 05:41:01;;;;;;;11.68;7.35;;;;;;;11.68;84.25;99820.31;5051154;28;20083;-83
2022/01/10 05:43:28;;;;;;;12.15;5.75;;;;;;;11.74;84.35;99818.56;5051101;28;20130;-83
2022/01/10 05:45:59;;;;;;;15.52;8.85;;;;;;;11.79;84.18;99818.53;5057411;28;20069;-83
2022/01/10 05:48:29;;;;;;;17.77;12.95;;;;;;;11.83;84.34;99812.34;5034824;28;20042;-82
2022/01/10 05:51:01;;;;;;;25.73;16.70;;;;;;;11.88;84.34;99819.34;5050878;28;20033;-82
2022/01/10 05:53:30;;;;;;;31.40;23.10;;;;;;;11.92;84.21;99809.66;5035061;28;20060;-82
2022/01/10 05:55:59;;;;;;;29.33;20.67;;;;;;;11.94;84.06;99798.19;5034549;28;20052;-82
2022/01/10 05:58:28;;;;;;;19.35;16.17;;;;;;;11.85;83.59;99792.94;5050986;28;20049;-82
2022/01/10 06:00:57;;;;;;;44.13;34.17;;;;;;;11.71;83.11;99794.75;5051271;28;20056;-82
2022/01/10 06:03:25;;;;;;;37.35;25.35;;;;;;;11.62;83.05;99800.06;5052231;28;20045;-82
2022/01/10 06:06:00;;;;;;;36.03;27.88;;;;;;;11.63;83.27;99795.66;5050462;28;20045;-82
2022/01/10 06:08:28;;;;;;;32.08;26.55;;;;;;;11.68;83.26;99793.91;5051243;28;20091;-82
2022/01/10 06:10:55;;;;;;;37.85;30.05;;;;;;;11.72;83.61;99799.16;5050239;28;20507;-82
2022/01/10 06:13:38;;;;;;;34.15;23.55;;;;;;;11.78;83.71;99809.72;5065298;28;20056;-81
2022/01/10 06:16:08;;;;;;;23.05;15.98;;;;;;;11.85;83.65;99814.09;5050216;28;20079;-81
2022/01/10 06:18:41;;;;;;;19.98;13.82;;;;;;;11.91;83.62;99815.81;5049933;28;20099;-82
2022/01/10 06:21:09;;;;;;;24.05;18.20;;;;;;;11.96;83.56;99814.03;5067437;28;20048;-82
2022/01/10 06:23:36;;;;;;;38.17;29.38;;;;;;;11.98;83.35;99810.50;5043435;28;20041;-80
2022/01/10 06:26:04;;;;;;;34.88;26.85;;;;;;;12.08;83.36;99813.13;5031598;28;20049;-82
2022/01/10 06:28:32;;;;;;;34.75;25.75;;;;;;;12.21;83.46;99810.34;5020055;28;20045;-82
2022/01/10 06:31:03;;;;;;;28.38;23.33;;;;;;;12.29;83.51;99813.81;5049567;28;20071;-82
2022/01/10 06:33:40;;;;;;;39.63;30.50;;;;;;;12.31;83.73;99817.34;5048767;28;20036;-82
2022/01/10 06:36:09;;;;;;;18.45;12.57;;;;;;;12.46;83.39;99821.66;5050787;28;20064;-83
2022/01/10 06:38:39;;;;;;;8.60;5.32;;;;;;;12.60;83.04;99821.56;5050713;28;20147;-83
2022/01/10 06:41:07;;;;;;;4.07;1.73;;;;;;;12.78;82.59;99819.63;5050317;28;20044;-82
2022/01/10 06:43:37;;;;;;;4.35;1.10;;;;;;;12.96;81.97;99825.66;5032062;28;20065;-82
2022/01/10 06:46:07;;;;;;;4.05;0.82;;;;;;;13.04;81.31;99821.16;5053200;28;20049;-83
2022/01/10 06:48:35;;;;;;;20.98;13.30;;;;;;;13.08;80.68;99826.41;5050850;28;20389;-82
2022/01/10 06:51:04;;;;;;;26.52;20.10;;;;;;;13.33;80.23;99823.53;5070205;28;20064;-82
2022/01/10 06:53:33;;;;;;;40.92;29.83;;;;;;;13.55;79.56;99825.94;5070345;28;20111;-82
2022/01/10 06:56:03;;;;;;;39.55;25.92;;;;;;;13.70;79.20;99826.66;5069785;28;20114;-82
2022/01/10 06:58:32;;;;;;;42.47;30.75;;;;;;;13.91;79.12;99826.41;5089207;28;20047;-82
2022/01/10 07:01:01;;;;;;;46.65;32.83;;;;;;;14.09;78.72;99830.56;5051884;28;20390;-82
2022/01/10 07:03:29;;;;;;;36.08;26.38;;;;;;;14.15;78.63;99828.72;5070686;28;20403;-81
2022/01/10 07:06:07;;;;;;;34.08;26.27;;;;;;;14.15;78.57;99819.88;5067702;28;20188;-78
2022/01/10 07:08:34;;;;;;;13.70;9.50;;;;;;;14.25;78.30;99827.66;5068093;28;20040;-81
2022/01/10 07:11:03;;;;;;;12.23;4.45;;;;;;;14.49;77.57;99820.28;5056521;28;20043;-80
2022/01/10 07:13:32;;;;;;;7.30;2.75;;;;;;;14.91;77.51;99824.00;5060783;28;20040;-79
2022/01/10 07:16:04;;;;;;;5.70;1.40;;;;;;;15.16;76.89;99815.56;5053675;28;20413;-80
2022/01/10 07:18:32;;;;;;;5.07;1.58;;;;;;;15.28;76.09;99814.47;5069538;28;20124;-80
2022/01/10 07:21:08;;;;;;;5.30;1.17;;;;;;;15.41;74.94;99812.47;5055365;28;20040;-80
2022/01/10 07:23:36;;;;;;;2.35;0.68;;;;;;;15.45;75.09;99814.16;5090707;28;20040;-78
2022/01/10 07:26:03;;;;;;;10.43;1.00;;;;;;;15.32;73.91;99818.81;5083039;28;20122;-81
2022/01/10 07:28:31;;;;;;;5.25;0.90;;;;;;;15.26;73.29;99818.06;5060465;28;20055;-81
2022/01/10 07:30:58;;;;;;;2.40;0.77;;;;;;;15.37;73.08;99826.72;5056601;28;20068;-77
2022/01/10 07:33:26;;;;;;;3.55;0.98;;;;;;;15.56;72.50;99821.97;5081120;28;20075;-78
2022/01/10 07:35:54;;;;;;;5.93;0.70;;;;;;;15.60;71.20;99824.53;5071738;28;20098;-77
2022/01/10 07:38:23;;;;;;;4.35;1.23;;;;;;;15.53;70.37;99831.75;5070635;28;20071;-77
2022/01/10 07:40:51;;;;;;;10.10;1.45;;;;;;;15.32;69.93;99829.47;5072133;28;20098;-76
2022/01/10 07:43:19;;;;;;;4.80;0.80;;;;;;;15.16;69.91;99831.50;5069923;28;20098;-76
2022/01/10 07:45:54;;;;;;;4.72;1.60;;;;;;;15.00;69.79;99838.03;5071936;28;20039;-76
2022/01/10 07:48:23;;;;;;;9.38;2.03;;;;;;;14.88;70.42;99845.34;5070190;28;20115;-78
2022/01/10 07:50:50;;;;;;;3.00;0.88;;;;;;;14.83;70.75;99840.09;5062513;28;20074;-77
2022/01/10 07:53:18;;;;;;;7.50;3.33;;;;;;;14.80;70.88;99840.13;5068823;28;20102;-78
2022/01/10 07:55:48;;;;;;;16.35;8.52;;;;;;;14.84;71.32;99830.31;5044426;28;20099;-76
2022/01/10 07:58:16;;;;;;;17.83;9.77;;;;;;;14.89;71.54;99842.66;5062264;28;20041;-75
2022/01/10 08:00:44;;;;;;;12.80;6.90;;;;;;;14.92;71.59;99839.03;5056754;28;20044;-78
2022/01/10 08:03:12;;;;;;;34.78;22.35;;;;;;;14.89;71.42;99831.16;5066354;28;20067;-76
2022/01/10 08:05:39;;;;;;;31.52;20.77;;;;;;;14.89;71.60;99829.38;5068316;28;20416;-75
2022/01/10 08:08:07;;;;;;;27.00;18.23;;;;;;;14.89;71.59;99824.06;5068472;28;20032;-76
2022/01/10 08:10:35;;;;;;;32.33;18.75;;;;;;;14.93;71.05;99817.78;5067074;28;20557;-77
2022/01/10 08:13:05;;;;;;;30.65;19.75;;;;;;;15.23;71.54;99808.34;5038667;28;20045;-76
2022/01/10 08:15:33;;;;;;;35.03;23.30;;;;;;;15.69;71.84;99804.81;5040247;28;20045;-76
2022/01/10 08:18:01;;;;;;;9.98;4.55;;;;;;;16.25;71.60;99803.59;5049192;28;20136;-77
2022/01/10 08:20:28;;;;;;;9.55;3.20;;;;;;;16.72;71.39;99806.03;5051202;28;20064;-75
2022/01/10 08:22:56;;;;;;;5.60;2.22;;;;;;;17.15;71.15;99807.59;5066832;28;20053;-76
2022/01/10 08:25:24;;;;;;;4.25;1.08;;;;;;;17.27;69.97;99798.38;5051097;28;20056;-76
2022/01/10 08:27:52;;;;;;;11.82;3.20;;;;;;;16.94;68.61;99806.34;5052551;28;20045;-76
2022/01/10 08:30:21;;;;;;;10.48;4.63;;;;;;;16.64;69.00;99802.69;5051470;28;20441;-76
2022/01/10 08:32:50;;;;;;;6.57;2.85;;;;;;;16.31;68.44;99788.34;5066182;28;20049;-77
2022/01/10 08:35:17;;;;;;;8.60;1.77;;;;;;;15.97;69.18;99786.47;5051477;28;20676;-76
2022/01/10 08:37:45;;;;;;;3.22;1.25;;;;;;;15.75;69.64;99786.94;5066922;28;20037;-76
2022/01/10 08:40:14;;;;;;;10.48;4.70;;;;;;;15.74;70.33;99792.31;5051136;28;20041;-76
2022/01/10 08:42:42;;;;;;;4.32;0.82;;;;;;;15.87;70.47;99786.72;5057492;28;20112;-75
2022/01/10 08:45:11;;;;;;;7.55;2.33;;;;;;;16.12;70.17;99791.47;5054917;28;20049;-75
2022/01/10 08:47:40;;;;;;;7.22;3.00;;;;;;;16.31;69.62;99799.00;5070747;28;20049;-76
2022/01/10 08:50:11;;;;;;;7.20;2.10;;;;;;;16.41;69.30;99794.31;5070127;28;20050;-75
2022/01/10 08:52:40;;;;;;;20.45;13.80;;;;;;;16.44;68.55;99791.59;5069250;28;20045;-75
2022/01/10 08:55:09;;;;;;;15.27;10.90;;;;;;;16.50;68.37;99794.13;5053155;28;20045;-75
2022/01/10 08:57:36;;;;;;;20.23;13.80;;;;;;;16.46;68.08;99779.13;5063843;28;20413;-75
2022/01/10 09:00:06;;;;;;;9.63;5.07;;;;;;;16.41;67.17;99782.81;5032437;28;20127;-77
2022/01/10 09:02:33;;;;;;;4.43;1.60;;;;;;;16.23;66.66;99784.09;5048221;28;20056;-76
2022/01/10 09:05:03;;;;;;;4.20;1.85;;;;;;;16.18;66.97;99792.22;5036521;28;20068;-75
2022/01/10 09:07:30;;;;;;;7.25;3.13;;;;;;;16.05;66.72;99784.53;5044004;28;20068;-76
2022/01/10 09:09:59;;;;;;;7.57;3.97;;;;;;;15.95;66.49;99787.38;5029351;28;20050;-74
2022/01/10 09:12:26;;;;;;;8.25;4.05;;;;;;;15.99;66.45;99782.88;5046216;28;20037;-74
2022/01/10 09:14:54;;;;;;;7.95;2.40;;;;;;;16.07;66.06;99780.94;5046173;28;20124;-74
2022/01/10 09:17:21;;;;;;;8.02;2.35;;;;;;;16.21;65.83;99777.97;5040340;28;20053;-75
2022/01/10 09:19:49;;;;;;;7.30;3.83;;;;;;;16.38;65.83;99773.09;5034256;28;20280;-74
2022/01/10 09:22:19;;;;;;;14.43;6.53;;;;;;;16.57;66.26;99769.06;5064595;28;20072;-75
2022/01/10 09:24:46;;;;;;;20.42;7.45;;;;;;;16.72;65.52;99751.88;5048840;28;20037;-74
2022/01/10 09:27:14;;;;;;;13.10;5.85;;;;;;;16.76;65.09;99731.31;5030768;28;20549;-74
2022/01/10 09:29:42;;;;;;;10.05;5.32;;;;;;;16.51;64.46;99731.94;5047848;28;20059;-76
2022/01/10 09:32:11;;;;;;;16.35;9.55;;;;;;;16.31;64.95;99723.56;5062572;28;20055;-78
2022/01/10 09:34:39;;;;;;;21.13;12.23;;;;;;;16.21;65.44;99728.22;5036186;28;20045;-76
2022/01/10 09:37:07;;;;;;;13.38;7.30;;;;;;;16.20;65.70;99730.94;5040540;28;20072;-76
2022/01/10 09:39:37;;;;;;;14.68;7.82;;;;;;;16.15;65.43;99728.38;5048245;28;20425;-78
2022/01/10 09:42:05;;;;;;;7.28;3.83;;;;;;;15.99;65.11;99724.31;5045334;28;20056;-76
2022/01/10 09:44:34;;;;;;;11.25;6.72;;;;;;;15.82;64.37;99719.38;5043598;28;20090;-74
2022/01/10 09:47:12;;;;;;;24.58;13.93;;;;;;;15.72;65.01;99715.19;5056025;28;20049;-76
2022/01/10 09:49:41;;;;;;;28.55;19.13;;;;;;;15.65;65.63;99705.59;5062604;28;20090;-75
2022/01/10 09:52:09;;;;;;;21.98;12.93;;;;;;;15.55;65.83;99693.41;5064601;28;20045;-75
2022/01/10 09:54:38;;;;;;;13.90;6.82;;;;;;;15.43;66.35;99699.81;5058193;28;20052;-75
2022/01/10 09:57:09;;;;;;;7.72;4.63;;;;;;;15.42;67.00;99695.41;5067239;28;20086;-75
2022/01/10 09:59:40;;;;;;;21.33;12.50;;;;;;;15.42;66.96;99699.88;5058003;28;20048;-76
2022/01/10 10:02:08;;;;;;;10.77;6.28;;;;;;;15.42;67.18;99689.22;5065606;28;20522;-75
2022/01/10 10:04:37;;;;;;;11.38;3.58;;;;;;;15.45;66.74;99691.81;5063188;28;20048;-76
2022/01/10 10:07:07;;;;;;;10.90;5.22;;;;;;;15.51;67.02;99681.03;5060994;28;20097;-76
2022/01/10 10:09:35;;;;;;;7.53;2.45;;;;;;;15.54;66.21;99681.88;5065197;28;20037;-76
2022/01/10 10:12:06;;;;;;;8.50;2.60;;;;;;;15.60;66.42;99677.34;5071576;28;20043;-76
2022/01/10 10:14:34;;;;;;;4.07;1.08;;;;;;;15.59;65.83;99683.56;5065256;28;20041;-77
2022/01/10 10:17:08;;;;;;;3.50;1.52;;;;;;;15.57;65.37;99677.38;5057362;28;20182;-76
2022/01/10 10:19:36;;;;;;;6.10;1.80;;;;;;;15.58;65.35;99684.47;5065504;28;20075;-76
2022/01/10 10:22:05;;;;;;;10.93;2.75;;;;;;;15.53;65.64;99676.59;5058375;28;20393;-77
2022/01/10 10:24:32;;;;;;;7.97;2.75;;;;;;;15.52;65.66;99662.41;5078668;28;20101;-76
2022/01/10 10:27:00;;;;;;;8.85;2.28;;;;;;;15.52;65.23;99678.38;5056379;28;20409;-76
2022/01/10 10:29:30;;;;;;;7.88;4.15;;;;;;;15.52;65.35;99674.81;5059340;28;20048;-76
2022/01/10 10:32:02;;;;;;;10.27;2.85;;;;;;;15.50;65.34;99673.94;5057379;28;20056;-76
2022/01/10 10:34:33;;;;;;;17.42;8.80;;;;;;;15.62;65.62;99672.88;5066329;28;20528;-77
2022/01/10 10:37:03;;;;;;;8.40;4.00;;;;;;;15.74;65.84;99661.94;5058372;28;20103;-76
2022/01/10 10:39:31;;;;;;;11.45;5.07;;;;;;;15.77;65.57;99670.72;5059866;28;20051;-76
2022/01/10 10:42:02;;;;;;;10.18;6.35;;;;;;;15.97;66.00;99669.38;5060332;28;20119;-76
2022/01/10 10:44:33;;;;;;;13.60;8.05;;;;;;;16.10;66.11;99660.16;5066137;28;20048;-76
2022/01/10 10:47:03;;;;;;;14.57;9.15;;;;;;;16.14;65.68;99667.19;5058741;28;20049;-75
2022/01/10 10:49:35;;;;;;;15.13;8.02;;;;;;;15.99;63.81;99660.44;5065089;28;20073;-74
2022/01/10 10:52:05;;;;;;;13.57;7.90;;;;;;;15.88;63.42;99663.34;5066418;28;20404;-74
2022/01/10 10:54:34;;;;;;;24.08;13.60;;;;;;;15.76;62.58;99660.09;5067930;28;20070;-75
2022/01/10 10:57:05;;;;;;;8.43;4.63;;;;;;;15.62;62.66;99668.38;5070641;28;20456;-75
2022/01/10 10:59:40;;;;;;;16.52;9.85;;;;;;;15.51;63.00;99662.41;5058245;28;20037;-75
2022/01/10 11:02:07;;;;;;;7.22;4.40;;;;;;;15.38;63.37;99653.81;5066118;28;20052;-75
2022/01/10 11:04:35;;;;;;;10.20;4.45;;;;;;;15.35;64.36;99661.00;5067929;28;20047;-74
2022/01/10 11:07:04;;;;;;;7.60;1.58;;;;;;;15.32;65.65;99661.06;5071213;28;20047;-75
2022/01/10 11:09:32;;;;;;;10.73;3.63;;;;;;;15.25;66.76;99656.78;5070737;28;20048;-74
2022/01/10 11:12:00;;;;;;;9.27;5.90;;;;;;;15.15;68.09;99680.91;5066315;28;20056;-75
2022/01/10 11:14:29;;;;;;;6.03;2.75;;;;;;;15.04;69.20;99663.41;5064596;28;20037;-74
2022/01/10 11:17:01;;;;;;;6.22;1.77;;;;;;;14.85;69.92;99654.94;5045718;28;20062;-75
2022/01/10 11:19:32;;;;;;;14.40;9.05;;;;;;;14.69;71.33;99653.50;5059559;28;20098;-75
2022/01/10 11:22:05;;;;;;;16.52;9.32;;;;;;;14.69;72.14;99653.50;5057171;28;20041;-74
2022/01/10 11:24:44;;;;;;;10.52;6.90;;;;;;;14.87;71.98;99644.28;5076975;28;20045;-74
2022/01/10 11:27:32;;;;;;;4.35;1.98;;;;;;;14.70;72.05;99628.69;5048526;28;20045;-75
2022/01/10 11:30:02;;;;;;;5.88;3.20;;;;;;;14.66;71.54;99621.66;5047724;28;20627;-74
2022/01/10 11:32:54;;;;;;;11.40;5.45;;;;;;;14.84;71.14;99617.75;5036914;28;20452;-75
2022/01/10 11:35:22;;;;;;;9.68;4.28;;;;;;;15.09;71.70;99622.56;5036227;28;20052;-75
2022/01/10 11:37:49;;;;;;;6.38;3.15;;;;;;;15.38;72.60;99613.94;5035252;28;20033;-75
2022/01/10 11:40:17;;;;;;;6.95;2.03;;;;;;;15.63;73.30;99626.69;5046602;28;20053;-74
2022/01/10 11:42:45;;;;;;;4.60;2.42;;;;;;;15.76;73.30;99622.84;5037119;28;20124;-74
2022/01/10 11:45:15;;;;;;;7.35;2.72;;;;;;;15.68;72.70;99617.72;5039717;28;20172;-75
2022/01/10 11:48:16;;;;;;;2.75;1.65;;;;;;;15.64;72.98;99612.50;5045012;28;20040;-74